Accueil
METAR-TAF:

METAR-TAF

Aéroports :

Aéroport international de Koweït

Koweït, Koweït

latitude: 29-13N, longitude: 047-59E, altitude: 55 m

Observation

Le bulletin a été fait il y a 1 heure et 1 minutes, à 03:00 UTC
Vent 7 kt de nord/nord-ouest
Température 33°C
Humidité 23%
Pression 1000 hPa
Visibilité 10 km ou plus
pas de nuages en-dessous de 1500 mètres et pas de cumulonimbus.

METAR: OKBK 110300Z 33007KT CAVOK 33/09 Q1000 NOSIG

Heure: 07:01 (04:01 UTC)

Prévision

Le bulletin a été fait il y a 5 heures et 16 minutes, à 22:45 UTC
Prévision valable du 11 à 00 UTC au 12 à 06 UTC
Vent 10 kt de nord/nord-ouest avec des rafales jusqu'à 20 kt
Visibilité: 7000 m

TAF: OKBK 102245Z 1100/1206 34010G20KT 7000 NSC

Observations et prévisions météorologiques de plus de 4000 aéroports (messages METAR et TAF).

Les stations disponibles sont représentées par des disques jaunes et rouges sur la carte.

Passer la souris dessus pour voir le nom de la station.

Cliquer dessus pour voir les observations et prévisions météorologiques.

Pour changer de carte: cliquez sur les boutons verts avec une croix noire pour zoomer, sur le bouton vert avec un tiret pour effectuer un zoom arrière, ou sur les flèches vertes pour les cartes adjacentes.


METAR-TAF: